Time;durP1;ratioP1;P1;durP2;ratioP2;P2;SDS_P1;SDS_P2;PMS_P1;PMS_P2;Temp;Humidity;BMP_temperature;BMP_pressure;BME280_temperature;BME280_humidity;BME280_pressure;Samples;Min_cycle;Max_cycle;Signal;HPM_P1;HPM_P2
2022/12/19 00:01:31;;;;;;;16.53;6.07;;;;;;;;;;5028813;28;20017;-91
2022/12/19 00:04:00;;;;;;;18.70;7.10;;;;;;;;;;5027749;28;20160;-91
2022/12/19 00:06:26;;;;;;;8.73;3.37;;;;;;;;;;5044273;28;20116;-92
2022/12/19 00:08:52;;;;;;;19.77;5.90;;;;;;;;;;5033007;28;20063;-93
2022/12/19 00:11:18;;;;;;;15.50;6.03;;;;;;;;;;5049024;28;20071;-93
2022/12/19 00:13:44;;;;;;;19.20;7.93;;;;;;;;;;5031922;28;20155;-93
2022/12/19 00:16:10;;;;;;;7.10;3.45;;;;;;;;;;5034149;28;20049;-92
2022/12/19 00:18:38;;;;;;;5.57;2.40;;;;;;;;;;5032637;28;20033;-92
2022/12/19 00:21:04;;;;;;;6.47;2.90;;;;;;;;;;5032713;28;20461;-92
2022/12/19 00:23:30;;;;;;;18.70;5.65;;;;;;;;;;5031892;28;20063;-93
2022/12/19 00:26:05;;;;;;;14.57;5.23;;;;;;;;;;5027758;28;20100;-93
2022/12/19 00:28:30;;;;;;;17.58;6.93;;;;;;;;;;5033841;28;20097;-91
2022/12/19 00:30:58;;;;;;;22.87;8.83;;;;;;;;;;5031546;28;20303;-92
2022/12/19 00:33:23;;;;;;;19.23;7.17;;;;;;;;;;5032325;28;20029;-92
2022/12/19 00:35:48;;;;;;;4.55;1.80;;;;;;;;;;5032637;28;20025;-91
2022/12/19 00:38:14;;;;;;;21.17;7.43;;;;;;;;;;5032969;28;20018;-91
2022/12/19 00:40:39;;;;;;;15.77;5.22;;;;;;;;;;5032518;28;20441;-92
2022/12/19 00:43:04;;;;;;;20.80;8.47;;;;;;;;;;5032865;28;20037;-92
2022/12/19 00:45:29;;;;;;;13.00;5.07;;;;;;;;;;5033510;28;20025;-92
2022/12/19 00:47:54;;;;;;;23.13;8.20;;;;;;;;;;5049127;28;20025;-91
2022/12/19 00:50:20;;;;;;;21.50;7.63;;;;;;;;;;5032590;28;20120;-91
2022/12/19 00:52:45;;;;;;;17.97;7.63;;;;;;;;;;5031851;28;20083;-91
2022/12/19 00:55:10;;;;;;;12.77;5.77;;;;;;;;;;5031935;28;20099;-91
2022/12/19 00:57:35;;;;;;;18.27;6.93;;;;;;;;;;5031299;28;20021;-91
2022/12/19 01:00:00;;;;;;;21.37;8.40;;;;;;;;;;5031255;28;20018;-92
2022/12/19 01:02:26;;;;;;;22.10;8.53;;;;;;;;;;5032137;28;20017;-91
2022/12/19 01:04:51;;;;;;;21.37;8.47;;;;;;;;;;5048893;28;20426;-91
2022/12/19 01:07:16;;;;;;;19.53;9.23;;;;;;;;;;5032157;28;20024;-90
2022/12/19 01:09:41;;;;;;;3.17;1.23;;;;;;;;;;5047706;28;20018;-91
2022/12/19 01:14:53;;;;;;;21.20;8.63;;;;;;;;;;5033445;28;20039;-90
2022/12/19 01:17:18;;;;;;;19.47;7.80;;;;;;;;;;5046417;28;20521;-91
2022/12/19 01:19:43;;;;;;;16.97;5.93;;;;;;;;;;5048503;28;20021;-91
2022/12/19 01:22:09;;;;;;;16.53;6.03;;;;;;;;;;5047308;28;20116;-91
2022/12/19 01:24:34;;;;;;;9.63;3.67;;;;;;;;;;5031350;28;20131;-92
2022/12/19 01:27:00;;;;;;;17.13;6.77;;;;;;;;;;5048562;28;20029;-91
2022/12/19 01:29:25;;;;;;;21.43;7.30;;;;;;;;;;5048710;28;20021;-92
2022/12/19 01:31:50;;;;;;;24.37;9.17;;;;;;;;;;5048086;28;20437;-91
2022/12/19 01:34:15;;;;;;;14.60;5.77;;;;;;;;;;5032405;28;20055;-91
2022/12/19 01:36:40;;;;;;;20.80;6.77;;;;;;;;;;5048517;28;20021;-91
2022/12/19 01:39:06;;;;;;;15.40;5.77;;;;;;;;;;5031689;28;20091;-91
2022/12/19 01:41:31;;;;;;;21.17;7.47;;;;;;;;;;5031614;28;20074;-91
2022/12/19 01:43:58;;;;;;;17.10;6.90;;;;;;;;;;5031455;28;20076;-91
2022/12/19 01:46:33;;;;;;;18.23;7.30;;;;;;;;;;5047309;28;20492;-91
2022/12/19 01:48:59;;;;;;;14.57;4.93;;;;;;;;;;5031488;28;20017;-91
2022/12/19 01:51:28;;;;;;;18.90;7.00;;;;;;;;;;5048300;28;20438;-91
2022/12/19 01:53:57;;;;;;;14.23;6.00;;;;;;;;;;5042984;28;20021;-92
2022/12/19 01:56:25;;;;;;;16.80;6.87;;;;;;;;;;5047741;28;20101;-89
2022/12/19 01:58:52;;;;;;;20.07;7.27;;;;;;;;;;5036924;28;20038;-91
2022/12/19 02:01:17;;;;;;;19.43;6.80;;;;;;;;;;5044635;28;20045;-91
2022/12/19 02:03:43;;;;;;;13.67;5.30;;;;;;;;;;5030563;28;20480;-91
2022/12/19 02:06:09;;;;;;;12.83;5.50;;;;;;;;;;5033931;28;20064;-90
2022/12/19 02:08:34;;;;;;;15.53;5.97;;;;;;;;;;5051768;28;20102;-90
2022/12/19 02:10:59;;;;;;;15.87;4.30;;;;;;;;;;5036368;28;20542;-90
2022/12/19 02:13:25;;;;;;;12.80;4.50;;;;;;;;;;5035970;28;20024;-89
2022/12/19 02:16:16;;;;;;;15.93;6.70;;;;;;;;;;5050658;28;20017;-88
2022/12/19 02:18:41;;;;;;;17.57;6.73;;;;;;;;;;5037359;28;20033;-89
2022/12/19 02:21:13;;;;;;;5.70;1.77;;;;;;;;;;5051363;28;20752;-87
2022/12/19 02:23:57;;;;;;;1.23;0.70;;;;;;;;;;5050822;28;20029;-88
2022/12/19 02:26:29;;;;;;;14.80;6.47;;;;;;;;;;5050670;28;20106;-88
2022/12/19 02:29:06;;;;;;;14.30;5.67;;;;;;;;;;5049370;28;20481;-88
2022/12/19 02:31:50;;;;;;;12.03;4.63;;;;;;;;;;5050743;28;20029;-90
2022/12/19 02:34:29;;;;;;;16.27;6.30;;;;;;;;;;5051310;28;20541;-90
2022/12/19 02:36:58;;;;;;;14.37;4.60;;;;;;;;;;5050809;28;20022;-90
2022/12/19 02:39:23;;;;;;;13.07;5.07;;;;;;;;;;5050340;28;20025;-91
2022/12/19 02:41:51;;;;;;;14.70;6.17;;;;;;;;;;5033779;28;20496;-88
2022/12/19 02:44:22;;;;;;;14.30;6.57;;;;;;;;;;5021300;28;20032;-88
2022/12/19 02:46:47;;;;;;;15.17;6.67;;;;;;;;;;5050262;28;20021;-88
2022/12/19 02:49:13;;;;;;;12.63;6.07;;;;;;;;;;5034922;28;20135;-88
2022/12/19 02:51:38;;;;;;;14.90;7.67;;;;;;;;;;5049222;28;20037;-87
2022/12/19 02:54:04;;;;;;;15.33;6.87;;;;;;;;;;5050395;28;20037;-89
2022/12/19 02:56:35;;;;;;;11.23;4.03;;;;;;;;;;5032657;28;20025;-88
2022/12/19 02:59:19;;;;;;;14.00;6.27;;;;;;;;;;5025898;28;20062;-88
2022/12/19 03:01:44;;;;;;;14.17;6.73;;;;;;;;;;5033733;28;20405;-88
2022/12/19 03:04:09;;;;;;;13.87;6.33;;;;;;;;;;5049427;28;20021;-88
2022/12/19 03:06:53;;;;;;;1.87;1.07;;;;;;;;;;5050425;28;20058;-88
2022/12/19 03:09:26;;;;;;;16.23;7.07;;;;;;;;;;5050286;28;20095;-89
2022/12/19 03:11:54;;;;;;;11.83;5.83;;;;;;;;;;5050135;28;20075;-88
2022/12/19 03:14:20;;;;;;;11.83;5.07;;;;;;;;;;5034654;28;20059;-88
2022/12/19 03:16:45;;;;;;;8.60;3.80;;;;;;;;;;5047903;28;20021;-88
2022/12/19 03:19:11;;;;;;;15.80;5.63;;;;;;;;;;5034734;28;20048;-87
2022/12/19 03:21:40;;;;;;;13.97;6.57;;;;;;;;;;5032855;28;20049;-88
2022/12/19 03:24:06;;;;;;;11.50;6.53;;;;;;;;;;5049664;28;20112;-88
2022/12/19 03:26:35;;;;;;;14.33;6.70;;;;;;;;;;5049535;28;20457;-88
2022/12/19 03:29:06;;;;;;;13.37;6.73;;;;;;;;;;5048987;28;20025;-88
2022/12/19 03:31:32;;;;;;;13.47;6.10;;;;;;;;;;5050017;28;20056;-89
2022/12/19 03:34:05;;;;;;;15.90;6.40;;;;;;;;;;5049776;28;20021;-89
2022/12/19 03:36:33;;;;;;;17.00;8.10;;;;;;;;;;5032808;28;20022;-88
2022/12/19 03:39:00;;;;;;;16.57;8.33;;;;;;;;;;5049803;28;20022;-88
2022/12/19 03:44:10;;;;;;;11.93;4.80;;;;;;;;;;5034491;28;20071;-89
2022/12/19 03:46:42;;;;;;;14.20;5.87;;;;;;;;;;5042843;28;20033;-91
2022/12/19 03:49:07;;;;;;;12.97;5.50;;;;;;;;;;5049647;28;20030;-89
2022/12/19 03:51:36;;;;;;;10.60;4.27;;;;;;;;;;5034122;28;20104;-89
2022/12/19 03:54:05;;;;;;;8.63;3.93;;;;;;;;;;5048026;28;20025;-88
2022/12/19 03:56:30;;;;;;;14.80;6.93;;;;;;;;;;5049387;28;20033;-89
2022/12/19 03:59:03;;;;;;;12.67;6.80;;;;;;;;;;5032445;28;20014;-88
2022/12/19 04:01:31;;;;;;;16.87;7.23;;;;;;;;;;5048860;28;20028;-87
2022/12/19 04:03:57;;;;;;;16.00;7.23;;;;;;;;;;5032184;28;20013;-86
2022/12/19 04:06:22;;;;;;;16.80;7.07;;;;;;;;;;5032254;28;20079;-86
2022/12/19 04:08:47;;;;;;;13.20;7.20;;;;;;;;;;5048856;28;20052;-86
2022/12/19 04:11:16;;;;;;;15.37;7.10;;;;;;;;;;5048353;28;20028;-85
2022/12/19 04:13:54;;;;;;;17.00;6.87;;;;;;;;;;5048227;28;20021;-85
2022/12/19 04:16:27;;;;;;;12.47;6.13;;;;;;;;;;5047523;28;20014;-86
2022/12/19 04:18:57;;;;;;;9.47;3.77;;;;;;;;;;5031747;28;20044;-86
2022/12/19 04:21:26;;;;;;;13.13;6.40;;;;;;;;;;5032661;28;20369;-86
2022/12/19 04:23:56;;;;;;;13.03;6.33;;;;;;;;;;5033243;28;20037;-85
2022/12/19 04:26:22;;;;;;;12.90;6.30;;;;;;;;;;5032981;28;20431;-86
2022/12/19 04:28:49;;;;;;;14.00;6.13;;;;;;;;;;5031103;28;20070;-87
2022/12/19 04:31:15;;;;;;;8.53;4.13;;;;;;;;;;5032961;28;20029;-89
2022/12/19 04:33:40;;;;;;;14.10;6.30;;;;;;;;;;5048525;28;20029;-88
2022/12/19 04:36:06;;;;;;;13.00;6.50;;;;;;;;;;5031962;28;20040;-88
2022/12/19 04:38:31;;;;;;;5.53;2.87;;;;;;;;;;5049144;28;20040;-90
2022/12/19 04:40:56;;;;;;;10.00;5.90;;;;;;;;;;5047746;28;20029;-88
2022/12/19 04:43:22;;;;;;;12.40;6.30;;;;;;;;;;5048326;28;20091;-90
2022/12/19 04:45:47;;;;;;;16.17;5.60;;;;;;;;;;5041264;28;20013;-89
2022/12/19 04:48:12;;;;;;;10.83;3.97;;;;;;;;;;5048587;28;20519;-88
2022/12/19 04:50:37;;;;;;;9.60;4.77;;;;;;;;;;5032701;28;20469;-89
2022/12/19 04:53:02;;;;;;;12.47;5.60;;;;;;;;;;5047201;28;20025;-88
2022/12/19 04:55:28;;;;;;;9.80;5.23;;;;;;;;;;5047778;28;20358;-86
2022/12/19 04:57:53;;;;;;;10.03;5.87;;;;;;;;;;5047957;28;20013;-87
2022/12/19 05:00:18;;;;;;;10.83;6.33;;;;;;;;;;5031296;28;20143;-87
2022/12/19 05:02:44;;;;;;;11.27;6.00;;;;;;;;;;5047775;28;20021;-87
2022/12/19 05:05:09;;;;;;;12.43;6.53;;;;;;;;;;5047240;28;20032;-87
2022/12/19 05:07:34;;;;;;;5.03;2.57;;;;;;;;;;5032396;28;20100;-87
2022/12/19 05:10:00;;;;;;;11.23;5.70;;;;;;;;;;5047953;28;20014;-87
2022/12/19 05:12:26;;;;;;;10.73;4.90;;;;;;;;;;5047532;28;20009;-87
2022/12/19 05:14:52;;;;;;;10.37;5.70;;;;;;;;;;5047310;28;20031;-86
2022/12/19 05:17:17;;;;;;;11.70;6.90;;;;;;;;;;5045432;28;20108;-85
2022/12/19 05:19:42;;;;;;;12.47;5.80;;;;;;;;;;5047316;28;20022;-85
2022/12/19 05:22:07;;;;;;;10.33;5.30;;;;;;;;;;5046863;28;20025;-86
2022/12/19 05:24:32;;;;;;;11.00;5.80;;;;;;;;;;5035592;28;20030;-85
2022/12/19 05:26:58;;;;;;;13.43;5.23;;;;;;;;;;5044831;28;20025;-86
2022/12/19 05:29:23;;;;;;;10.17;4.90;;;;;;;;;;5046845;28;20191;-86
2022/12/19 05:31:48;;;;;;;14.20;5.33;;;;;;;;;;5031349;28;20516;-87
2022/12/19 05:34:13;;;;;;;10.97;5.83;;;;;;;;;;5031543;28;20465;-85
2022/12/19 05:36:39;;;;;;;9.20;4.60;;;;;;;;;;5047052;28;20033;-86
2022/12/19 05:39:04;;;;;;;10.93;4.97;;;;;;;;;;5047825;28;20027;-86
2022/12/19 05:41:30;;;;;;;7.47;4.73;;;;;;;;;;5037941;28;20373;-86
2022/12/19 05:43:55;;;;;;;10.03;4.73;;;;;;;;;;5053786;28;20097;-86
2022/12/19 05:46:21;;;;;;;9.77;5.70;;;;;;;;;;5046933;28;20213;-85
2022/12/19 05:48:46;;;;;;;11.00;5.93;;;;;;;;;;5053683;28;20028;-86
2022/12/19 05:51:11;;;;;;;10.33;5.27;;;;;;;;;;5053727;28;20072;-86
2022/12/19 05:53:38;;;;;;;9.63;5.00;;;;;;;;;;5037758;28;20539;-86
2022/12/19 05:56:04;;;;;;;11.20;6.03;;;;;;;;;;5053357;28;20018;-85
2022/12/19 05:58:29;;;;;;;9.93;5.30;;;;;;;;;;5036800;28;20107;-85
2022/12/19 06:00:59;;;;;;;12.30;5.77;;;;;;;;;;5053591;28;20044;-87
2022/12/19 06:03:24;;;;;;;23.70;6.10;;;;;;;;;;5054020;28;20434;-87
2022/12/19 06:05:50;;;;;;;9.00;5.03;;;;;;;;;;5037641;28;20028;-87
2022/12/19 06:08:15;;;;;;;9.90;5.77;;;;;;;;;;5053856;28;20017;-86
2022/12/19 06:10:40;;;;;;;11.10;5.53;;;;;;;;;;5053833;28;20441;-87
2022/12/19 06:13:05;;;;;;;12.33;6.13;;;;;;;;;;5053263;28;20393;-86
2022/12/19 06:15:30;;;;;;;10.10;5.47;;;;;;;;;;5053755;28;20014;-86
2022/12/19 06:17:55;;;;;;;12.57;5.50;;;;;;;;;;5037332;28;20068;-87
2022/12/19 06:20:21;;;;;;;11.27;5.77;;;;;;;;;;5053816;28;20036;-86
2022/12/19 06:22:46;;;;;;;10.20;5.67;;;;;;;;;;5038569;28;20109;-86
2022/12/19 06:25:11;;;;;;;11.27;6.10;;;;;;;;;;5053943;28;20025;-87
2022/12/19 06:27:37;;;;;;;12.60;4.93;;;;;;;;;;5053452;28;20050;-87
2022/12/19 06:30:03;;;;;;;20.27;8.90;;;;;;;;;;5051861;28;20082;-86
2022/12/19 06:32:28;;;;;;;13.57;6.03;;;;;;;;;;5053561;28;20465;-86
2022/12/19 06:34:53;;;;;;;11.00;5.70;;;;;;;;;;5036953;28;20428;-87
2022/12/19 06:37:18;;;;;;;8.50;5.03;;;;;;;;;;5053156;28;20021;-87
2022/12/19 06:39:44;;;;;;;8.10;5.07;;;;;;;;;;5037647;28;20026;-87
2022/12/19 06:42:24;;;;;;;9.50;5.03;;;;;;;;;;5037969;28;20017;-88
2022/12/19 06:44:53;;;;;;;8.57;5.10;;;;;;;;;;5035054;28;20333;-88
2022/12/19 06:47:18;;;;;;;6.43;2.93;;;;;;;;;;5050949;28;20021;-88
2022/12/19 06:49:44;;;;;;;9.47;4.77;;;;;;;;;;5037271;28;20024;-88
2022/12/19 06:52:10;;;;;;;8.77;4.87;;;;;;;;;;5031489;28;20127;-88
2022/12/19 06:54:35;;;;;;;8.37;3.90;;;;;;;;;;5033595;28;20021;-89
2022/12/19 06:57:00;;;;;;;10.50;5.10;;;;;;;;;;5033289;28;20018;-89
2022/12/19 06:59:25;;;;;;;7.10;4.70;;;;;;;;;;5033540;28;20643;-90
2022/12/19 07:02:00;;;;;;;10.80;4.17;;;;;;;;;;5050471;28;20552;-89
2022/12/19 07:04:28;;;;;;;13.77;5.00;;;;;;;;;;5049392;28;20044;-88
2022/12/19 07:06:53;;;;;;;14.20;5.30;;;;;;;;;;5048371;28;20091;-88
2022/12/19 07:09:18;;;;;;;9.37;4.33;;;;;;;;;;5024571;28;20026;-88
2022/12/19 07:11:44;;;;;;;12.27;4.70;;;;;;;;;;5033467;28;20018;-88
2022/12/19 07:14:09;;;;;;;8.53;4.93;;;;;;;;;;5033229;28;20029;-89
2022/12/19 07:16:34;;;;;;;10.17;4.50;;;;;;;;;;5019159;28;20021;-89
2022/12/19 07:18:59;;;;;;;7.67;3.53;;;;;;;;;;5026006;28;20034;-89
2022/12/19 07:21:24;;;;;;;10.50;5.00;;;;;;;;;;5030991;28;20018;-89
2022/12/19 07:23:50;;;;;;;8.13;4.97;;;;;;;;;;5023836;28;20024;-88
2022/12/19 07:26:15;;;;;;;8.87;4.90;;;;;;;;;;5026352;28;20363;-89
2022/12/19 07:28:43;;;;;;;9.60;4.87;;;;;;;;;;5032899;28;20018;-89
2022/12/19 07:31:08;;;;;;;8.40;4.20;;;;;;;;;;5033604;28;20122;-88
2022/12/19 07:33:33;;;;;;;14.43;5.07;;;;;;;;;;5034849;28;20021;-91
2022/12/19 07:35:58;;;;;;;10.33;4.40;;;;;;;;;;5047619;28;20018;-91
2022/12/19 07:38:24;;;;;;;8.17;3.83;;;;;;;;;;5032862;28;20017;-90
2022/12/19 07:40:49;;;;;;;5.70;1.53;;;;;;;;;;5033985;28;20016;-91
2022/12/19 07:43:14;;;;;;;8.83;4.97;;;;;;;;;;5024433;28;20544;-91
2022/12/19 07:45:40;;;;;;;8.53;4.23;;;;;;;;;;5026000;28;20055;-89
2022/12/19 07:48:05;;;;;;;5.77;3.27;;;;;;;;;;5049411;28;20089;-87
2022/12/19 07:50:31;;;;;;;9.57;4.43;;;;;;;;;;5051112;28;20067;-88
2022/12/19 07:52:56;;;;;;;8.13;4.40;;;;;;;;;;5031908;28;20104;-88
2022/12/19 07:55:22;;;;;;;7.17;4.00;;;;;;;;;;5049610;28;20386;-88
2022/12/19 07:57:47;;;;;;;8.00;4.10;;;;;;;;;;5032338;28;20018;-87
2022/12/19 08:00:12;;;;;;;13.43;3.97;;;;;;;;;;5042871;28;20108;-89
2022/12/19 08:02:37;;;;;;;10.17;5.13;;;;;;;;;;5042005;28;20708;-88
2022/12/19 08:05:03;;;;;;;8.00;4.23;;;;;;;;;;5028554;28;20029;-90
2022/12/19 08:07:28;;;;;;;10.53;4.00;;;;;;;;;;5032158;28;20047;-88
2022/12/19 08:09:53;;;;;;;9.07;3.90;;;;;;;;;;5046134;28;20060;-89
2022/12/19 08:12:18;;;;;;;9.33;4.30;;;;;;;;;;5043469;28;20499;-88
2022/12/19 08:15:11;;;;;;;9.90;4.60;;;;;;;;;;5051970;28;20452;-88
2022/12/19 08:17:37;;;;;;;;;;;;;;;;;;5036768;28;20044;-89
2022/12/19 08:20:03;;;;;;;17.13;3.60;;;;;;;;;;5022928;28;19991;-89
2022/12/19 08:22:29;;;;;;;7.23;3.63;;;;;;;;;;5029328;28;20105;-89
2022/12/19 08:24:54;;;;;;;9.53;3.70;;;;;;;;;;5034164;28;20014;-88
2022/12/19 08:27:19;;;;;;;5.68;2.85;;;;;;;;;;5033602;28;20072;-88
2022/12/19 08:29:44;;;;;;;7.55;3.53;;;;;;;;;;5031867;28;20034;-87
2022/12/19 08:32:09;;;;;;;5.70;2.53;;;;;;;;;;5029863;28;20117;-89
2022/12/19 08:34:35;;;;;;;6.88;3.67;;;;;;;;;;5035816;28;20096;-88
2022/12/19 08:37:00;;;;;;;6.43;4.00;;;;;;;;;;5043750;28;20460;-87
2022/12/19 08:39:25;;;;;;;7.30;3.57;;;;;;;;;;5033304;28;20018;-87
2022/12/19 08:41:50;;;;;;;7.93;4.27;;;;;;;;;;5032377;28;20096;-87
2022/12/19 08:44:15;;;;;;;7.88;4.47;;;;;;;;;;5028599;28;20024;-86
2022/12/19 08:46:41;;;;;;;9.77;4.20;;;;;;;;;;5040920;28;20387;-86
2022/12/19 08:49:06;;;;;;;9.00;4.77;;;;;;;;;;5029737;28;20020;-85
2022/12/19 08:51:31;;;;;;;6.13;3.13;;;;;;;;;;5021775;28;20386;-86
2022/12/19 08:53:56;;;;;;;10.80;4.03;;;;;;;;;;5027029;28;20029;-85
2022/12/19 08:56:21;;;;;;;5.87;3.80;;;;;;;;;;5033226;28;20020;-86
2022/12/19 08:58:47;;;;;;;8.20;4.23;;;;;;;;;;5046151;28;20026;-85
2022/12/19 09:01:14;;;;;;;8.60;4.33;;;;;;;;;;5030827;28;20040;-86
2022/12/19 09:03:40;;;;;;;6.60;3.63;;;;;;;;;;5030502;28;20061;-86
2022/12/19 09:06:06;;;;;;;10.63;4.23;;;;;;;;;;5024006;28;20072;-86
2022/12/19 09:08:31;;;;;;;7.23;4.00;;;;;;;;;;5026673;28;20034;-86
2022/12/19 09:10:58;;;;;;;8.07;3.70;;;;;;;;;;5031024;28;20047;-86
2022/12/19 09:13:23;;;;;;;2.63;1.40;;;;;;;;;;5028733;28;20045;-87
2022/12/19 09:15:49;;;;;;;7.20;3.60;;;;;;;;;;5020255;28;20014;-86
2022/12/19 09:18:14;;;;;;;6.67;4.20;;;;;;;;;;5027540;28;20021;-86
2022/12/19 09:20:39;;;;;;;7.97;4.10;;;;;;;;;;5035562;28;20124;-85
2022/12/19 09:23:04;;;;;;;7.43;3.37;;;;;;;;;;5028775;28;20017;-85
2022/12/19 09:25:29;;;;;;;8.67;3.60;;;;;;;;;;5030287;28;20033;-85
2022/12/19 09:27:54;;;;;;;8.57;3.80;;;;;;;;;;5045462;28;20025;-86
2022/12/19 09:30:20;;;;;;;7.83;3.47;;;;;;;;;;5047516;28;20118;-84
2022/12/19 09:32:46;;;;;;;6.80;2.90;;;;;;;;;;5042578;28;20026;-86
2022/12/19 09:35:11;;;;;;;7.33;4.00;;;;;;;;;;5026502;28;20028;-84
2022/12/19 09:37:36;;;;;;;7.25;3.85;;;;;;;;;;5033374;28;20025;-85
2022/12/19 09:40:01;;;;;;;5.65;3.22;;;;;;;;;;5046681;28;20009;-86
2022/12/19 09:42:38;;;;;;;8.03;3.60;;;;;;;;;;5027263;28;20527;-86
2022/12/19 09:45:13;;;;;;;7.10;3.53;;;;;;;;;;5028783;28;20071;-86
2022/12/19 09:47:41;;;;;;;6.37;3.83;;;;;;;;;;5040505;28;20053;-86
2022/12/19 09:50:21;;;;;;;10.60;3.60;;;;;;;;;;5041929;28;20036;-86
2022/12/19 09:52:50;;;;;;;8.15;3.20;;;;;;;;;;5013532;28;20030;-87
2022/12/19 09:55:19;;;;;;;7.07;3.53;;;;;;;;;;5016024;28;20361;-85
2022/12/19 09:57:56;;;;;;;6.38;3.40;;;;;;;;;;5029451;28;20013;-86
2022/12/19 10:00:22;;;;;;;6.55;3.50;;;;;;;;;;5031398;28;20104;-84
2022/12/19 10:03:17;;;;;;;5.80;3.30;;;;;;;;;;5041631;28;20462;-86
2022/12/19 10:05:45;;;;;;;6.57;3.03;;;;;;;;;;5021829;28;20021;-85
2022/12/19 10:08:17;;;;;;;6.93;3.07;;;;;;;;;;5035704;28;20009;-85
2022/12/19 10:11:01;;;;;;;5.60;3.72;;;;;;;;;;5040947;28;20088;-85
2022/12/19 10:13:45;;;;;;;6.90;3.25;;;;;;;;;;5036769;28;20029;-86
2022/12/19 10:16:17;;;;;;;6.32;3.25;;;;;;;;;;5033778;28;20049;-84
2022/12/19 10:18:45;;;;;;;4.80;3.03;;;;;;;;;;5030856;28;20025;-85
2022/12/19 10:21:24;;;;;;;6.77;3.37;;;;;;;;;;5041522;28;20032;-86
2022/12/19 10:23:49;;;;;;;5.77;2.80;;;;;;;;;;5031430;28;20500;-86
2022/12/19 10:26:22;;;;;;;5.53;2.50;;;;;;;;;;5047395;28;20021;-86
2022/12/19 10:28:47;;;;;;;;;;;;;;;;;;5031530;28;20014;-85
2022/12/19 10:31:17;;;;;;;5.90;3.42;;;;;;;;;;5041405;28;20007;-86
2022/12/19 10:33:46;;;;;;;7.00;3.28;;;;;;;;;;5031440;28;20383;-86
2022/12/19 10:36:11;;;;;;;8.93;3.58;;;;;;;;;;5028527;28;20009;-85
2022/12/19 10:38:46;;;;;;;8.90;3.25;;;;;;;;;;5026390;28;20010;-86
2022/12/19 10:41:20;;;;;;;9.68;2.70;;;;;;;;;;5054149;28;20377;-85
2022/12/19 10:43:45;;;;;;;8.80;3.00;;;;;;;;;;5028013;28;20466;-85
2022/12/19 10:46:21;;;;;;;9.32;3.80;;;;;;;;;;5032925;28;20075;-86
2022/12/19 10:48:47;;;;;;;6.28;2.92;;;;;;;;;;5046417;28;20053;-87
2022/12/19 10:51:17;;;;;;;4.97;3.00;;;;;;;;;;5030499;28;20026;-86
2022/12/19 10:53:51;;;;;;;4.13;2.87;;;;;;;;;;5022847;28;20021;-86
2022/12/19 10:56:21;;;;;;;4.70;3.20;;;;;;;;;;5044126;28;21755;-87
2022/12/19 10:58:49;;;;;;;5.45;3.20;;;;;;;;;;5048231;28;20016;-84
2022/12/19 11:01:24;;;;;;;4.88;2.65;;;;;;;;;;5050544;28;20074;-86
2022/12/19 11:04:08;;;;;;;6.55;3.10;;;;;;;;;;5048744;28;20120;-87
2022/12/19 11:06:33;;;;;;;4.47;2.77;;;;;;;;;;5035055;28;20083;-85
2022/12/19 11:09:17;;;;;;;5.77;3.30;;;;;;;;;;5033420;28;20025;-88
2022/12/19 11:11:43;;;;;;;8.87;3.20;;;;;;;;;;5045086;28;20049;-86
2022/12/19 11:14:21;;;;;;;9.47;2.77;;;;;;;;;;5034348;28;20045;-84
2022/12/19 11:16:46;;;;;;;5.23;2.90;;;;;;;;;;5040365;28;20028;-86
2022/12/19 11:19:19;;;;;;;7.13;3.33;;;;;;;;;;5030306;28;20108;-87
2022/12/19 11:21:44;;;;;;;5.82;2.28;;;;;;;;;;5046893;28;20022;-86
2022/12/19 11:24:11;;;;;;;8.35;3.10;;;;;;;;;;5023606;28;20117;-87
2022/12/19 11:26:41;;;;;;;7.53;2.80;;;;;;;;;;5043972;28;20025;-86
2022/12/19 11:29:15;;;;;;;5.32;2.70;;;;;;;;;;5029169;28;20113;-85
2022/12/19 11:31:41;;;;;;;6.13;3.08;;;;;;;;;;5029708;28;20104;-85
2022/12/19 11:34:13;;;;;;;6.13;3.08;;;;;;;;;;5027869;28;20116;-84
2022/12/19 11:36:47;;;;;;;9.68;2.67;;;;;;;;;;5038116;28;20576;-85
2022/12/19 11:39:31;;;;;;;6.40;2.90;;;;;;;;;;5039342;28;20025;-86
2022/12/19 11:42:02;;;;;;;5.40;3.13;;;;;;;;;;5038777;28;20018;-86
2022/12/19 11:44:46;;;;;;;6.10;2.78;;;;;;;;;;5022611;28;20030;-89
2022/12/19 11:47:31;;;;;;;5.90;2.60;;;;;;;;;;5036716;28;20358;-89
2022/12/19 11:50:22;;;;;;;8.98;3.28;;;;;;;;;;5032783;28;20025;-89
2022/12/19 11:52:57;;;;;;;6.25;3.15;;;;;;;;;;5028119;28;20049;-87
2022/12/19 11:55:23;;;;;;;4.47;2.50;;;;;;;;;;5028180;28;20421;-88
2022/12/19 11:57:48;;;;;;;6.93;2.60;;;;;;;;;;5033443;28;20075;-88
2022/12/19 12:00:16;;;;;;;5.95;2.78;;;;;;;;;;5029966;28;20372;-87
2022/12/19 12:02:44;;;;;;;6.32;2.90;;;;;;;;;;5048753;28;20023;-88
2022/12/19 12:05:21;;;;;;;7.15;3.08;;;;;;;;;;5041393;28;20168;-87
2022/12/19 12:07:52;;;;;;;5.60;2.60;;;;;;;;;;5044311;28;20469;-86
2022/12/19 12:10:19;;;;;;;6.97;2.80;;;;;;;;;;5053223;28;20033;-88
2022/12/19 12:12:53;;;;;;;5.70;2.97;;;;;;;;;;5042031;28;20028;-87
2022/12/19 12:15:24;;;;;;;6.88;3.03;;;;;;;;;;5026430;28;20018;-87
2022/12/19 12:17:54;;;;;;;4.07;2.22;;;;;;;;;;5036568;28;20043;-87
2022/12/19 12:20:29;;;;;;;4.43;2.20;;;;;;;;;;5030684;28;20018;-87
2022/12/19 12:23:14;;;;;;;6.45;3.50;;;;;;;;;;5042875;28;20104;-86
2022/12/19 12:25:55;;;;;;;4.70;2.90;;;;;;;;;;5020422;28;20076;-87
2022/12/19 12:28:43;;;;;;;7.47;2.92;;;;;;;;;;5033926;28;20022;-90
2022/12/19 12:31:29;;;;;;;7.30;3.00;;;;;;;;;;5025777;28;20626;-89
2022/12/19 12:34:13;;;;;;;4.68;2.90;;;;;;;;;;5047486;28;20025;-88
2022/12/19 12:36:57;;;;;;;4.47;2.58;;;;;;;;;;5033280;28;20414;-89
2022/12/19 12:39:22;;;;;;;5.25;2.83;;;;;;;;;;5023789;28;20537;-90
2022/12/19 12:42:02;;;;;;;8.18;2.45;;;;;;;;;;5035304;28;20107;-87
2022/12/19 12:44:30;;;;;;;5.22;2.25;;;;;;;;;;5047642;28;20021;-88
2022/12/19 12:47:02;;;;;;;4.32;2.28;;;;;;;;;;5025290;28;20100;-88
2022/12/19 12:49:36;;;;;;;5.57;2.40;;;;;;;;;;5041132;28;20030;-88
2022/12/19 12:52:03;;;;;;;8.68;2.60;;;;;;;;;;5049110;28;20080;-89
2022/12/19 12:54:31;;;;;;;4.75;2.58;;;;;;;;;;5046010;28;20469;-91
2022/12/19 12:56:57;;;;;;;7.75;2.92;;;;;;;;;;5023732;28;20024;-88
2022/12/19 12:59:23;;;;;;;6.03;2.30;;;;;;;;;;5046274;28;20010;-89
2022/12/19 13:01:59;;;;;;;5.00;2.50;;;;;;;;;;5047917;28;20044;-91
2022/12/19 13:04:26;;;;;;;7.03;2.85;;;;;;;;;;5045597;28;20025;-89
2022/12/19 13:06:51;;;;;;;4.45;2.35;;;;;;;;;;5039304;28;20368;-88
2022/12/19 13:09:16;;;;;;;3.83;1.85;;;;;;;;;;5034988;28;20021;-90
2022/12/19 13:14:37;;;;;;;4.40;1.90;;;;;;;;;;5030768;28;20139;-90
2022/12/19 13:17:04;;;;;;;6.65;2.40;;;;;;;;;;5030905;28;20085;-89
2022/12/19 13:19:30;;;;;;;4.57;2.13;;;;;;;;;;5046489;28;20025;-89
2022/12/19 13:21:58;;;;;;;4.07;2.22;;;;;;;;;;5047796;28;20080;-88
2022/12/19 13:24:24;;;;;;;4.60;2.45;;;;;;;;;;5028709;28;20104;-89
2022/12/19 13:26:51;;;;;;;3.97;2.33;;;;;;;;;;5044797;28;20116;-86
2022/12/19 13:29:50;;;;;;;6.13;2.22;;;;;;;;;;5033396;28;20028;-88
2022/12/19 13:32:15;;;;;;;5.18;2.67;;;;;;;;;;5022668;28;20117;-87
2022/12/19 13:34:49;;;;;;;5.00;2.42;;;;;;;;;;5024391;28;20504;-87
2022/12/19 13:37:18;;;;;;;6.18;1.80;;;;;;;;;;5025865;28;20101;-87
2022/12/19 13:39:46;;;;;;;5.68;2.75;;;;;;;;;;5042741;28;20486;-86
2022/12/19 13:45:29;;;;;;;5.68;2.05;;;;;;;;;;5021864;28;20036;-88
2022/12/19 13:47:56;;;;;;;7.00;2.10;;;;;;;;;;5023886;28;20036;-88
2022/12/19 13:50:21;;;;;;;8.85;2.30;;;;;;;;;;5036488;28;20472;-87
2022/12/19 13:52:47;;;;;;;5.40;2.22;;;;;;;;;;5031513;28;20020;-87
2022/12/19 13:55:13;;;;;;;9.05;2.30;;;;;;;;;;5022297;28;20030;-90
2022/12/19 13:57:38;;;;;;;5.43;2.05;;;;;;;;;;5037931;28;20114;-89
2022/12/19 14:00:16;;;;;;;4.40;1.90;;;;;;;;;;5045722;28;20009;-88
2022/12/19 14:02:55;;;;;;;6.95;2.40;;;;;;;;;;5031474;28;20021;-86
2022/12/19 14:05:20;;;;;;;5.10;2.55;;;;;;;;;;5041185;28;20052;-90
2022/12/19 14:07:45;;;;;;;5.80;2.20;;;;;;;;;;5041546;28;20616;-89
2022/12/19 14:10:16;;;;;;;3.13;1.88;;;;;;;;;;5050837;28;20058;-87
2022/12/19 14:15:42;;;;;;;7.93;1.80;;;;;;;;;;5024100;28;20468;-87
2022/12/19 14:18:17;;;;;;;5.35;2.28;;;;;;;;;;5033506;28;20028;-89
2022/12/19 14:20:42;;;;;;;5.93;2.85;;;;;;;;;;5032648;28;20035;-86
2022/12/19 14:23:09;;;;;;;6.40;2.47;;;;;;;;;;5034852;28;20108;-89
2022/12/19 14:25:34;;;;;;;4.30;2.35;;;;;;;;;;5020999;28;20030;-87
2022/12/19 14:28:02;;;;;;;6.55;2.45;;;;;;;;;;5032168;28;20022;-87
2022/12/19 14:30:30;;;;;;;5.15;2.30;;;;;;;;;;5032108;28;20029;-85
2022/12/19 14:32:56;;;;;;;4.13;2.28;;;;;;;;;;5053001;28;20017;-87
2022/12/19 14:35:24;;;;;;;8.13;2.67;;;;;;;;;;5032393;28;20113;-88
2022/12/19 14:37:57;;;;;;;5.53;2.40;;;;;;;;;;5048595;28;20030;-87
2022/12/19 14:40:30;;;;;;;5.30;2.55;;;;;;;;;;5047696;28;20053;-90
2022/12/19 14:45:46;;;;;;;5.10;2.55;;;;;;;;;;5034452;28;20021;-88
2022/12/19 14:48:26;;;;;;;5.03;2.38;;;;;;;;;;5051529;28;20017;-87
2022/12/19 14:51:01;;;;;;;6.40;2.75;;;;;;;;;;5049770;28;20385;-88
2022/12/19 14:53:26;;;;;;;4.35;1.60;;;;;;;;;;5034932;28;20413;-89
2022/12/19 14:56:00;;;;;;;7.07;1.85;;;;;;;;;;5033596;28;20033;-89
2022/12/19 14:58:34;;;;;;;4.75;2.38;;;;;;;;;;5029715;28;20338;-91
2022/12/19 15:00:59;;;;;;;4.40;2.40;;;;;;;;;;5053403;28;20048;-89
2022/12/19 15:03:26;;;;;;;3.83;1.95;;;;;;;;;;5033516;28;20025;-91